Time;durP1;ratioP1;P1;durP2;ratioP2;P2;SDS_P1;SDS_P2;PMS_P1;PMS_P2;Temp;Humidity;BMP_temperature;BMP_pressure;BME280_temperature;BME280_humidity;BME280_pressure;Samples;Min_cycle;Max_cycle;Signal;HPM_P1;HPM_P2
2021/05/29 00:01:57;;;;;;;2.65;2.03;;;16.40;75.90;;;;;;5086900;28;27321;-67
2021/05/29 00:04:41;;;;;;;2.53;1.67;;;16.40;75.90;;;;;;5086540;28;27323;-66
2021/05/29 00:07:26;;;;;;;5.85;2.15;;;16.40;76.20;;;;;;5082669;28;27321;-67
2021/05/29 00:10:10;;;;;;;3.40;2.35;;;16.40;76.00;;;;;;5086663;28;27378;-67
2021/05/29 00:12:54;;;;;;;2.70;2.10;;;16.30;75.20;;;;;;5085730;28;26922;-67
2021/05/29 00:15:40;;;;;;;2.25;2.05;;;16.30;75.70;;;;;;5086396;28;27366;-67
2021/05/29 00:18:25;;;;;;;2.95;1.60;;;16.30;75.20;;;;;;5086525;28;28039;-66
2021/05/29 00:21:10;;;;;;;4.20;2.10;;;16.30;75.00;;;;;;5085703;28;27341;-67
2021/05/29 00:23:54;;;;;;;2.90;2.10;;;16.30;74.30;;;;;;5086541;28;27384;-67
2021/05/29 00:26:38;;;;;;;3.05;1.80;;;16.30;74.70;;;;;;5085864;28;27431;-67
2021/05/29 00:29:23;;;;;;;7.05;2.15;;;16.20;75.00;;;;;;5086359;28;27419;-67
2021/05/29 00:32:07;;;;;;;2.50;2.00;;;16.20;75.40;;;;;;5085081;28;27427;-68
2021/05/29 00:34:52;;;;;;;2.90;1.98;;;16.20;75.50;;;;;;5086361;28;27416;-67
2021/05/29 00:37:37;;;;;;;2.25;1.77;;;16.20;75.40;;;;;;5082281;28;27408;-67
2021/05/29 00:40:21;;;;;;;2.97;2.30;;;16.20;75.80;;;;;;5085643;28;27590;-67
2021/05/29 00:43:06;;;;;;;4.78;1.90;;;16.20;76.30;;;;;;5086214;28;27409;-67
2021/05/29 00:45:50;;;;;;;2.47;2.20;;;16.10;76.00;;;;;;5085911;28;27461;-67
2021/05/29 00:48:35;;;;;;;3.42;1.70;;;16.10;76.00;;;;;;5086131;28;27457;-67
2021/05/29 00:51:20;;;;;;;4.20;1.67;;;16.10;76.30;;;;;;5085646;28;27461;-67
2021/05/29 00:54:05;;;;;;;2.75;2.03;;;16.10;76.00;;;;;;5085979;28;27435;-66
2021/05/29 00:56:50;;;;;;;2.00;1.65;;;16.10;76.10;;;;;;5085689;28;27474;-67
2021/05/29 00:59:35;;;;;;;7.38;1.73;;;16.00;76.70;;;;;;5085630;28;27465;-67
2021/05/29 01:02:19;;;;;;;2.88;2.22;;;16.00;76.60;;;;;;5085894;28;27490;-68
2021/05/29 01:05:06;;;;;;;4.18;2.70;;;16.00;77.00;;;;;;5085496;28;27490;-67
2021/05/29 01:07:52;;;;;;;3.45;2.80;;;16.00;76.80;;;;;;5085572;28;27472;-67
2021/05/29 01:10:37;;;;;;;5.22;2.47;;;16.00;77.00;;;;;;5085732;28;27398;-67
2021/05/29 01:13:27;;;;;;;6.95;2.85;;;15.90;77.00;;;;;;5085387;28;27419;-67
2021/05/29 01:16:42;;;;;;;5.28;1.98;;;15.90;77.10;;;;;;5085336;28;27475;-68
2021/05/29 01:19:16;;;;;;;3.40;2.20;;;15.90;77.00;;;;;;5085384;28;27349;-67
2021/05/29 01:22:05;;;;;;;2.50;2.17;;;15.90;77.40;;;;;;5085582;28;27371;-67
2021/05/29 01:24:50;;;;;;;5.30;2.53;;;15.90;77.00;;;;;;5085463;28;27458;-67
2021/05/29 01:27:35;;;;;;;4.18;1.75;;;15.90;77.70;;;;;;5084539;28;27430;-67
2021/05/29 01:30:19;;;;;;;4.18;2.63;;;15.90;77.60;;;;;;5085209;28;27489;-69
2021/05/29 01:33:04;;;;;;;2.65;1.95;;;15.90;77.20;;;;;;5085087;28;27419;-68
2021/05/29 01:35:48;;;;;;;2.95;2.08;;;15.80;77.70;;;;;;5084430;28;27387;-67
2021/05/29 01:38:33;;;;;;;1.98;1.70;;;15.80;77.40;;;;;;5084280;28;27399;-67
2021/05/29 01:41:20;;;;;;;5.28;2.25;;;15.80;77.70;;;;;;5085012;28;27321;-67
2021/05/29 01:44:07;;;;;;;3.22;2.50;;;15.70;77.80;;;;;;5085177;28;27466;-67
2021/05/29 01:46:51;;;;;;;3.65;2.20;;;15.70;77.70;;;;;;5084849;28;27472;-67
2021/05/29 01:49:36;;;;;;;3.20;2.25;;;15.70;77.50;;;;;;5085109;28;27473;-67
2021/05/29 01:52:20;;;;;;;4.60;2.15;;;15.70;77.70;;;;;;5069582;28;27506;-66
2021/05/29 01:55:05;;;;;;;3.20;2.17;;;15.70;77.60;;;;;;5084782;28;27458;-66
2021/05/29 01:57:50;;;;;;;3.65;1.92;;;15.70;78.00;;;;;;5084948;28;27403;-67
2021/05/29 02:00:35;;;;;;;2.78;2.20;;;15.70;78.10;;;;;;5084927;28;27399;-67
2021/05/29 02:03:19;;;;;;;3.63;1.83;;;15.60;78.30;;;;;;5084577;28;27409;-66
2021/05/29 02:06:04;;;;;;;4.20;2.28;;;15.60;78.70;;;;;;5084895;28;27407;-67
2021/05/29 02:08:48;;;;;;;3.33;2.22;;;15.60;78.20;;;;;;5083830;28;27530;-67
2021/05/29 02:11:33;;;;;;;4.68;2.13;;;15.60;78.30;;;;;;5084710;28;27382;-66
2021/05/29 02:14:18;;;;;;;2.92;2.25;;;15.50;78.50;;;;;;5083755;28;27348;-67
2021/05/29 02:17:02;;;;;;;3.90;1.75;;;15.50;78.30;;;;;;5084788;28;27407;-67
2021/05/29 02:19:47;;;;;;;2.63;2.00;;;15.50;79.20;;;;;;5084375;28;27399;-66
2021/05/29 02:22:32;;;;;;;3.22;2.08;;;15.50;78.70;;;;;;5084619;28;27328;-66
2021/05/29 02:25:16;;;;;;;5.32;2.45;;;15.50;79.00;;;;;;5084651;28;27383;-66
2021/05/29 02:28:01;;;;;;;5.25;2.28;;;15.40;77.60;;;;;;5083567;28;27356;-66
2021/05/29 02:30:46;;;;;;;2.30;2.10;;;15.40;77.80;;;;;;5083973;28;27772;-66
2021/05/29 02:33:31;;;;;;;4.00;2.30;;;15.40;78.80;;;;;;5083910;28;27422;-67
2021/05/29 02:36:15;;;;;;;2.72;2.42;;;15.40;78.80;;;;;;5080546;28;27427;-66
2021/05/29 02:39:00;;;;;;;3.05;2.22;;;15.30;79.30;;;;;;5080209;28;27378;-66
2021/05/29 02:41:44;;;;;;;3.55;2.33;;;15.30;79.20;;;;;;5084335;28;27386;-66
2021/05/29 02:44:29;;;;;;;5.25;2.50;;;15.30;79.30;;;;;;5083525;28;27344;-66
2021/05/29 02:47:13;;;;;;;8.38;2.40;;;15.30;79.80;;;;;;5080158;28;27503;-67
2021/05/29 02:49:58;;;;;;;3.53;2.10;;;15.30;80.20;;;;;;5084272;28;27450;-67
2021/05/29 02:52:42;;;;;;;6.22;2.40;;;15.20;79.70;;;;;;5079720;28;27965;-68
2021/05/29 02:55:27;;;;;;;2.65;1.85;;;15.20;79.70;;;;;;5084170;28;27450;-66
2021/05/29 02:58:11;;;;;;;3.75;2.08;;;15.20;79.50;;;;;;5083561;28;27439;-66
2021/05/29 03:00:56;;;;;;;4.32;2.42;;;15.20;80.30;;;;;;5083353;28;27469;-66
2021/05/29 03:03:40;;;;;;;4.03;2.10;;;15.20;80.00;;;;;;5083204;28;27407;-66
2021/05/29 03:06:25;;;;;;;2.58;1.77;;;15.20;79.70;;;;;;5083519;28;27458;-66
2021/05/29 03:09:09;;;;;;;3.95;2.47;;;15.20;79.90;;;;;;5083513;28;27480;-66
2021/05/29 03:11:53;;;;;;;4.70;2.72;;;15.10;79.70;;;;;;5083351;28;27399;-66
2021/05/29 03:14:38;;;;;;;2.50;2.25;;;15.10;79.70;;;;;;5083403;28;27853;-66
2021/05/29 03:17:22;;;;;;;3.72;2.40;;;15.10;80.20;;;;;;5083328;28;27344;-66
2021/05/29 03:20:08;;;;;;;3.28;1.75;;;15.10;81.00;;;;;;5082387;28;27416;-66
2021/05/29 03:22:52;;;;;;;4.32;2.10;;;15.10;80.30;;;;;;5083210;28;27408;-66
2021/05/29 03:25:37;;;;;;;3.03;2.47;;;15.10;80.10;;;;;;5083062;28;27343;-66
2021/05/29 03:28:22;;;;;;;3.63;2.30;;;15.10;79.90;;;;;;5083009;28;27364;-67
2021/05/29 03:31:07;;;;;;;2.13;1.80;;;15.10;80.20;;;;;;5083288;28;27401;-66
2021/05/29 03:33:51;;;;;;;6.38;2.15;;;15.10;80.10;;;;;;5082916;28;27380;-66
2021/05/29 03:36:35;;;;;;;3.20;2.22;;;15.10;80.30;;;;;;5078897;28;27352;-66
2021/05/29 03:39:20;;;;;;;4.63;1.83;;;15.10;80.10;;;;;;5082887;28;27410;-66
2021/05/29 03:42:05;;;;;;;2.58;2.38;;;15.10;80.40;;;;;;5083078;28;27363;-67
2021/05/29 03:44:49;;;;;;;4.03;1.83;;;15.00;80.60;;;;;;5083068;28;27387;-66
2021/05/29 03:47:34;;;;;;;2.08;1.80;;;15.00;80.50;;;;;;5083126;28;27445;-66
2021/05/29 03:50:23;;;;;;;2.75;2.10;;;15.00;80.50;;;;;;5078561;28;27432;-66
2021/05/29 03:53:07;;;;;;;2.35;1.92;;;15.00;80.40;;;;;;5081833;28;27394;-66
2021/05/29 03:55:52;;;;;;;2.97;2.15;;;15.00;80.70;;;;;;5083117;28;27418;-66
2021/05/29 03:58:36;;;;;;;4.20;1.98;;;15.00;80.80;;;;;;5085404;28;27395;-66
2021/05/29 04:01:20;;;;;;;3.03;2.10;;;15.00;80.90;;;;;;5086013;28;27412;-66
2021/05/29 04:04:06;;;;;;;1.70;1.60;;;15.00;80.80;;;;;;5086277;28;27351;-66
2021/05/29 04:06:51;;;;;;;2.30;1.90;;;15.00;80.80;;;;;;5086237;28;27403;-66
2021/05/29 04:09:35;;;;;;;2.80;1.95;;;15.00;80.70;;;;;;5086276;28;27375;-66
2021/05/29 04:12:19;;;;;;;1.98;1.80;;;15.00;80.70;;;;;;5085175;28;27414;-66
2021/05/29 04:15:06;;;;;;;4.45;1.75;;;15.00;81.10;;;;;;5086173;28;27403;-66
2021/05/29 04:17:50;;;;;;;2.30;1.85;;;15.00;81.20;;;;;;5086075;28;27366;-66
2021/05/29 04:20:35;;;;;;;3.03;2.30;;;15.00;80.90;;;;;;5083727;28;27613;-66
2021/05/29 04:23:19;;;;;;;1.90;1.70;;;15.00;81.50;;;;;;5085971;28;27455;-66
2021/05/29 04:26:07;;;;;;;2.05;1.83;;;15.00;80.80;;;;;;5085624;28;27417;-67
2021/05/29 04:28:52;;;;;;;2.22;1.80;;;15.00;80.80;;;;;;5085700;28;27429;-66
2021/05/29 04:31:36;;;;;;;3.72;2.20;;;15.00;80.90;;;;;;5085396;28;27379;-67
2021/05/29 04:34:21;;;;;;;5.43;2.05;;;15.00;81.10;;;;;;5084893;28;27399;-67
2021/05/29 04:37:05;;;;;;;2.50;2.30;;;15.00;80.60;;;;;;5085852;28;27364;-67
2021/05/29 04:39:49;;;;;;;2.92;2.40;;;15.00;80.90;;;;;;5085855;28;27361;-66
2021/05/29 04:42:34;;;;;;;3.88;2.03;;;15.00;81.10;;;;;;5085613;28;27868;-66
2021/05/29 04:45:20;;;;;;;3.17;2.20;;;15.00;80.60;;;;;;5085368;28;27503;-66
2021/05/29 04:48:05;;;;;;;2.53;2.08;;;15.00;80.40;;;;;;5085196;28;27399;-66
2021/05/29 04:51:12;;;;;;;2.47;2.03;;;15.10;81.00;;;;;;5085237;28;27356;-66
2021/05/29 04:53:55;;;;;;;2.80;2.13;;;15.10;80.80;;;;;;5081141;28;27381;-67
2021/05/29 04:56:39;;;;;;;2.97;1.88;;;15.10;80.40;;;;;;5085427;28;27367;-66
2021/05/29 04:59:24;;;;;;;2.42;2.03;;;15.10;80.60;;;;;;5085150;28;27462;-66
2021/05/29 05:02:08;;;;;;;4.40;2.35;;;15.10;81.00;;;;;;5085148;28;27422;-66
2021/05/29 05:04:53;;;;;;;1.92;1.73;;;15.20;80.00;;;;;;5085274;28;27965;-66
2021/05/29 05:07:37;;;;;;;2.60;2.25;;;15.20;80.50;;;;;;5084526;28;27481;-66
2021/05/29 05:10:21;;;;;;;2.28;2.00;;;15.20;80.90;;;;;;5085206;28;27419;-66
2021/05/29 05:13:06;;;;;;;4.72;2.45;;;15.20;80.90;;;;;;5084849;28;26881;-66
2021/05/29 05:15:51;;;;;;;2.70;2.20;;;15.20;77.70;;;;;;5084396;28;27431;-66
2021/05/29 05:18:36;;;;;;;2.88;2.10;;;15.30;77.20;;;;;;5085117;28;27411;-66
2021/05/29 05:21:21;;;;;;;2.58;1.85;;;15.30;77.20;;;;;;5084356;28;27419;-66
2021/05/29 05:24:06;;;;;;;2.88;1.95;;;15.40;77.50;;;;;;5084730;28;27420;-66
2021/05/29 05:26:50;;;;;;;3.85;2.30;;;15.40;75.40;;;;;;5084189;28;27400;-66
2021/05/29 05:29:35;;;;;;;3.22;2.25;;;15.40;76.40;;;;;;5084809;28;27493;-66
2021/05/29 05:32:20;;;;;;;4.80;2.20;;;15.40;76.80;;;;;;5080784;28;27525;-66
2021/05/29 05:35:14;;;;;;;3.03;2.00;;;15.50;75.40;;;;;;5084822;28;27405;-68
2021/05/29 05:37:59;;;;;;;3.45;1.90;;;15.50;75.80;;;;;;5084622;28;27395;-66
2021/05/29 05:40:43;;;;;;;2.88;2.10;;;15.50;75.90;;;;;;5084657;28;27356;-66
2021/05/29 05:43:28;;;;;;;2.05;1.70;;;15.60;75.00;;;;;;5084342;28;27726;-66
2021/05/29 05:46:13;;;;;;;3.53;2.03;;;15.60;76.60;;;;;;5084368;28;27387;-65
2021/05/29 05:48:58;;;;;;;5.43;2.00;;;15.70;77.60;;;;;;5084467;28;27320;-64
2021/05/29 05:51:43;;;;;;;3.20;2.22;;;15.70;74.70;;;;;;5084438;28;27404;-65
2021/05/29 05:54:27;;;;;;;1.98;1.70;;;15.80;77.00;;;;;;5084543;28;27340;-65
2021/05/29 05:57:13;;;;;;;2.08;1.88;;;16.00;76.90;;;;;;5084209;28;27438;-65
2021/05/29 05:59:58;;;;;;;2.85;1.85;;;16.10;76.90;;;;;;5084424;28;27437;-65
2021/05/29 06:02:43;;;;;;;3.63;1.83;;;16.30;77.30;;;;;;5066169;28;27388;-65
2021/05/29 06:05:27;;;;;;;4.30;1.60;;;16.40;78.30;;;;;;5084358;28;27346;-64
2021/05/29 06:08:13;;;;;;;2.42;1.70;;;16.50;76.50;;;;;;5084019;28;27412;-65
2021/05/29 06:10:57;;;;;;;2.17;1.50;;;16.60;75.90;;;;;;5083404;28;27391;-65
2021/05/29 06:19:30;;;;;;;1.65;1.40;;;16.80;74.20;;;;;;5083141;28;27423;-66
2021/05/29 06:22:16;;;;;;;2.17;1.40;;;16.90;75.20;;;;;;5084021;28;27972;-67
2021/05/29 06:25:00;;;;;;;2.15;1.42;;;17.00;73.80;;;;;;5083849;28;27414;-65
2021/05/29 06:27:45;;;;;;;2.40;1.70;;;17.20;74.50;;;;;;5083177;28;27380;-65
2021/05/29 06:30:29;;;;;;;2.63;1.40;;;17.30;72.90;;;;;;5079938;28;27395;-64
2021/05/29 06:33:14;;;;;;;2.15;1.13;;;17.40;71.40;;;;;;5082810;28;28051;-65
2021/05/29 06:35:58;;;;;;;4.00;1.77;;;17.40;71.90;;;;;;5083645;28;27442;-65
2021/05/29 06:38:43;;;;;;;3.33;1.08;;;17.50;72.40;;;;;;5084017;28;27426;-66
2021/05/29 06:41:27;;;;;;;1.77;1.38;;;17.50;72.50;;;;;;5083391;28;27423;-65
2021/05/29 06:44:12;;;;;;;2.70;1.50;;;17.60;72.20;;;;;;5083753;28;27404;-66
2021/05/29 06:46:56;;;;;;;1.73;1.63;;;17.80;71.70;;;;;;5083828;28;27550;-65
2021/05/29 06:49:41;;;;;;;3.20;1.30;;;18.00;71.80;;;;;;5079535;28;27469;-66
2021/05/29 06:52:29;;;;;;;1.58;1.48;;;18.10;71.90;;;;;;5083558;28;27404;-66
2021/05/29 06:58:42;;;;;;;2.13;1.40;;;18.50;69.50;;;;;;5089259;28;27429;-66
2021/05/29 07:01:27;;;;;;;1.60;1.20;;;18.80;68.80;;;;;;5083632;28;27414;-66
2021/05/29 07:04:12;;;;;;;1.80;1.70;;;18.90;63.60;;;;;;5082890;28;27337;-66
2021/05/29 07:06:56;;;;;;;2.72;1.60;;;19.00;64.30;;;;;;5083444;28;27873;-66
2021/05/29 07:09:41;;;;;;;1.83;1.50;;;19.10;64.00;;;;;;5083462;28;27404;-65
2021/05/29 07:12:25;;;;;;;2.15;1.40;;;19.10;63.70;;;;;;5082694;28;27335;-66
2021/05/29 07:15:10;;;;;;;1.80;1.33;;;19.20;65.40;;;;;;5083858;28;27311;-66
2021/05/29 07:17:56;;;;;;;1.50;1.40;;;19.40;67.50;;;;;;5083336;28;27932;-66
2021/05/29 07:20:41;;;;;;;1.92;1.52;;;19.50;65.10;;;;;;5083102;28;27383;-66
2021/05/29 07:23:27;;;;;;;1.80;1.50;;;19.70;63.30;;;;;;5079124;28;27402;-66
2021/05/29 07:26:12;;;;;;;3.83;1.40;;;19.90;62.40;;;;;;5082618;28;27366;-66
2021/05/29 07:28:57;;;;;;;2.10;1.90;;;20.00;59.60;;;;;;5083329;28;27840;-67
2021/05/29 07:31:45;;;;;;;3.35;1.67;;;20.10;59.40;;;;;;5084626;28;27605;-67
2021/05/29 07:34:30;;;;;;;2.75;1.55;;;20.30;60.40;;;;;;5071088;28;27544;-67
2021/05/29 07:37:14;;;;;;;1.63;1.50;;;20.50;59.10;;;;;;5086649;28;27382;-68
2021/05/29 07:39:58;;;;;;;1.33;1.23;;;20.60;57.90;;;;;;5086481;28;28023;-69
2021/05/29 07:42:44;;;;;;;3.10;1.40;;;20.70;57.80;;;;;;5086522;28;27393;-67
2021/05/29 07:45:29;;;;;;;2.95;1.33;;;20.90;57.80;;;;;;5087126;28;27375;-67
2021/05/29 07:48:14;;;;;;;2.78;1.60;;;21.00;57.00;;;;;;5087154;28;27401;-69
2021/05/29 07:51:03;;;;;;;1.63;0.98;;;21.10;55.00;;;;;;5086804;28;27391;-67
2021/05/29 07:53:47;;;;;;;1.92;1.40;;;21.30;55.70;;;;;;5086655;28;27418;-67
2021/05/29 07:56:32;;;;;;;2.30;1.30;;;21.40;54.60;;;;;;5087072;28;27457;-67
2021/05/29 07:59:18;;;;;;;2.55;1.23;;;21.60;56.60;;;;;;5082943;28;27457;-67
2021/05/29 08:02:04;;;;;;;1.30;1.20;;;21.80;56.50;;;;;;5086886;28;27470;-67
2021/05/29 08:04:48;;;;;;;1.70;1.40;;;22.10;57.50;;;;;;5086495;28;27433;-67
2021/05/29 08:07:33;;;;;;;1.65;1.55;;;22.30;58.60;;;;;;5086592;28;27483;-67
2021/05/29 08:10:17;;;;;;;1.85;0.75;;;22.50;57.80;;;;;;5086819;28;27400;-67
2021/05/29 08:13:02;;;;;;;2.67;1.70;;;22.80;55.80;;;;;;5085424;28;27472;-67
2021/05/29 08:15:47;;;;;;;2.28;1.13;;;23.00;55.90;;;;;;5086617;28;27458;-67
2021/05/29 08:18:31;;;;;;;3.97;1.40;;;23.20;54.30;;;;;;5086393;28;27485;-67
2021/05/29 08:21:15;;;;;;;6.40;1.20;;;23.40;55.20;;;;;;5086188;28;27476;-68
2021/05/29 08:24:00;;;;;;;2.70;1.50;;;23.60;55.70;;;;;;5085874;28;27638;-66
2021/05/29 08:26:45;;;;;;;5.70;1.58;;;23.60;52.20;;;;;;5084894;28;27467;-66
2021/05/29 08:29:29;;;;;;;1.65;1.30;;;23.50;53.30;;;;;;5086101;28;27412;-66
2021/05/29 08:32:14;;;;;;;5.15;1.58;;;23.50;55.80;;;;;;5086286;28;27467;-69
2021/05/29 08:34:58;;;;;;;3.53;1.33;;;23.40;59.00;;;;;;5086033;28;27383;-64
2021/05/29 08:37:45;;;;;;;8.60;1.70;;;23.30;64.90;;;;;;5085382;28;27389;-65
2021/05/29 08:40:29;;;;;;;3.40;1.20;;;23.50;65.50;;;;;;5085608;28;27373;-65
2021/05/29 08:43:14;;;;;;;2.35;1.10;;;23.80;63.90;;;;;;5085569;28;27387;-67
2021/05/29 08:45:58;;;;;;;2.67;1.67;;;23.80;58.10;;;;;;5085393;28;28047;-65
2021/05/29 08:48:42;;;;;;;5.28;1.23;;;23.70;55.70;;;;;;5086304;28;27332;-65
2021/05/29 08:51:27;;;;;;;3.55;1.20;;;23.50;55.80;;;;;;5085518;28;27436;-66
2021/05/29 08:54:11;;;;;;;3.00;1.55;;;23.60;58.20;;;;;;5086202;28;27359;-70
2021/05/29 08:56:56;;;;;;;2.10;1.38;;;23.80;57.20;;;;;;5085999;28;27883;-66
2021/05/29 08:59:40;;;;;;;4.45;1.85;;;23.90;54.80;;;;;;5085966;28;27458;-66
2021/05/29 09:02:25;;;;;;;2.83;1.27;;;23.90;53.60;;;;;;5085749;28;27408;-66
2021/05/29 09:05:11;;;;;;;2.65;1.10;;;23.80;50.90;;;;;;5081610;28;27419;-66
2021/05/29 09:08:12;;;;;;;2.70;1.42;;;24.00;52.40;;;;;;5085466;28;27826;-66
2021/05/29 09:10:58;;;;;;;2.05;1.10;;;24.30;56.70;;;;;;5084678;28;27473;-66
2021/05/29 09:13:43;;;;;;;4.80;1.30;;;24.50;58.20;;;;;;5085460;28;27443;-66
2021/05/29 09:16:27;;;;;;;3.33;1.38;;;24.70;58.80;;;;;;5085646;28;27470;-66
2021/05/29 09:19:12;;;;;;;4.88;1.60;;;25.00;59.00;;;;;;5084031;28;27432;-66
2021/05/29 09:21:56;;;;;;;5.20;1.40;;;25.30;59.70;;;;;;5084852;28;27459;-67
2021/05/29 09:24:41;;;;;;;3.95;2.05;;;25.50;57.60;;;;;;5086344;28;27505;-66
2021/05/29 09:27:26;;;;;;;6.40;1.50;;;25.50;45.50;;;;;;5084907;28;26904;-66
2021/05/29 09:30:10;;;;;;;4.68;2.83;;;25.30;47.90;;;;;;5084748;28;27882;-65
2021/05/29 09:33:20;;;;;;;1.40;1.20;;;25.00;51.30;;;;;;5085086;28;27505;-66
2021/05/29 09:36:09;;;;;;;1.48;1.10;;;24.70;54.10;;;;;;5087109;28;27373;-65
2021/05/29 09:38:54;;;;;;;2.33;1.15;;;24.50;54.80;;;;;;5085292;28;27399;-66
2021/05/29 09:41:39;;;;;;;4.05;1.50;;;24.30;56.70;;;;;;5085649;28;27966;-65
2021/05/29 09:44:26;;;;;;;1.40;1.30;;;24.00;54.90;;;;;;5098833;27;27374;-65
2021/05/29 09:47:15;;;;;;;1.50;1.30;;;23.70;56.30;;;;;;5083812;28;27399;-65
2021/05/29 09:50:00;;;;;;;1.70;1.13;;;23.40;55.00;;;;;;5084945;28;27412;-65
2021/05/29 09:52:45;;;;;;;1.80;1.30;;;23.10;56.70;;;;;;5084972;28;27413;-65
2021/05/29 09:55:39;;;;;;;3.55;1.23;;;22.90;57.60;;;;;;5084248;28;27368;-66
2021/05/29 09:58:54;;;;;;;2.60;0.98;;;23.10;63.60;;;;;;5084898;28;27473;-68
2021/05/29 10:01:54;;;;;;;2.47;1.40;;;23.40;56.10;;;;;;5080786;28;27455;-66
2021/05/29 10:04:42;;;;;;;2.63;1.50;;;23.50;56.90;;;;;;5066465;28;27396;-66
2021/05/29 10:07:39;;;;;;;4.25;1.40;;;23.80;58.60;;;;;;5084160;28;27482;-67
2021/05/29 10:10:25;;;;;;;1.17;1.08;;;24.20;62.10;;;;;;5084891;28;27486;-66
2021/05/29 10:13:09;;;;;;;1.45;1.00;;;24.40;60.00;;;;;;5069211;28;27702;-66
2021/05/29 10:15:54;;;;;;;3.95;1.38;;;24.70;59.60;;;;;;5084802;28;27468;-67
2021/05/29 10:18:39;;;;;;;6.57;1.20;;;25.00;60.40;;;;;;5084688;28;27415;-66
2021/05/29 10:21:26;;;;;;;1.15;1.10;;;25.40;58.90;;;;;;5083728;28;27429;-67
2021/05/29 10:24:10;;;;;;;2.67;1.15;;;25.70;59.10;;;;;;5083932;28;27332;-67
2021/05/29 10:26:55;;;;;;;3.33;0.98;;;26.00;60.90;;;;;;5083975;28;27952;-66
2021/05/29 10:29:40;;;;;;;2.17;1.17;;;26.30;59.70;;;;;;5083646;28;27422;-67
2021/05/29 10:32:24;;;;;;;5.28;1.10;;;26.40;60.40;;;;;;5083806;28;27420;-66
2021/05/29 10:35:10;;;;;;;3.58;0.95;;;26.20;57.40;;;;;;5084222;28;27529;-66
2021/05/29 10:37:55;;;;;;;4.53;1.00;;;25.90;53.70;;;;;;5084141;28;27876;-66
2021/05/29 10:40:43;;;;;;;3.17;1.60;;;25.50;54.80;;;;;;5083130;28;27471;-66
2021/05/29 10:43:35;;;;;;;2.20;1.23;;;25.20;55.50;;;;;;5080602;28;27325;-66
2021/05/29 10:46:19;;;;;;;1.35;1.20;;;24.90;57.00;;;;;;5084654;28;27464;-66
2021/05/29 10:49:04;;;;;;;4.30;1.55;;;24.90;56.70;;;;;;5084273;28;27470;-66
2021/05/29 10:51:48;;;;;;;1.42;1.05;;;25.10;55.90;;;;;;5083140;28;27430;-67
2021/05/29 10:54:32;;;;;;;2.20;1.10;;;25.30;56.40;;;;;;5097821;27;27454;-67
2021/05/29 10:57:17;;;;;;;3.55;1.10;;;25.60;60.40;;;;;;5083220;28;27422;-66
2021/05/29 11:00:02;;;;;;;3.53;1.20;;;25.90;58.20;;;;;;5083197;28;27981;-66
2021/05/29 11:03:17;;;;;;;1.88;1.15;;;26.30;55.00;;;;;;5084141;28;27445;-67
2021/05/29 11:06:02;;;;;;;1.83;1.00;;;26.40;57.00;;;;;;5086049;28;27392;-67
2021/05/29 11:08:53;;;;;;;2.17;1.10;;;26.40;57.80;;;;;;5100789;27;27488;-66
2021/05/29 11:14:51;;;;;;;1.85;1.20;;;26.00;57.60;;;;;;5087303;28;27573;-66
2021/05/29 11:17:36;;;;;;;2.45;1.10;;;25.60;61.90;;;;;;5087416;28;27379;-66
2021/05/29 11:20:22;;;;;;;3.03;1.05;;;25.30;56.50;;;;;;5083401;28;27336;-66
2021/05/29 11:23:06;;;;;;;4.97;1.10;;;25.00;54.10;;;;;;5087534;28;27328;-66
2021/05/29 11:25:50;;;;;;;5.47;1.40;;;24.70;56.10;;;;;;5087461;28;27375;-66
2021/05/29 11:28:37;;;;;;;3.10;1.42;;;24.70;60.10;;;;;;5087548;28;27416;-65
2021/05/29 11:31:21;;;;;;;2.13;1.40;;;24.80;61.50;;;;;;5087467;28;27365;-65
2021/05/29 11:34:06;;;;;;;1.88;1.25;;;25.10;58.80;;;;;;5086553;28;27340;-66
2021/05/29 11:36:50;;;;;;;2.50;1.35;;;25.30;59.00;;;;;;5087291;28;27402;-65
2021/05/29 11:39:35;;;;;;;5.45;1.30;;;25.50;63.50;;;;;;5087004;28;27348;-65
2021/05/29 11:42:19;;;;;;;3.67;1.50;;;25.60;60.80;;;;;;5086538;28;27486;-66
2021/05/29 11:45:18;;;;;;;4.13;1.30;;;25.60;60.10;;;;;;5086039;28;27897;-66
2021/05/29 11:48:05;;;;;;;1.90;1.13;;;25.80;60.60;;;;;;5086848;28;27517;-66
2021/05/29 11:51:08;;;;;;;1.40;1.10;;;25.90;58.50;;;;;;5086864;28;27323;-66
2021/05/29 11:54:06;;;;;;;2.45;1.40;;;25.90;58.90;;;;;;5086557;28;27325;-66
2021/05/29 11:56:52;;;;;;;3.60;1.17;;;25.90;57.00;;;;;;5086752;28;27833;-66
2021/05/29 11:59:36;;;;;;;1.90;1.30;;;26.00;58.60;;;;;;5086135;28;27437;-66
2021/05/29 12:02:21;;;;;;;2.53;1.20;;;26.30;61.60;;;;;;5086267;28;27521;-65
2021/05/29 12:05:06;;;;;;;1.27;0.98;;;26.40;61.10;;;;;;5086138;28;27446;-65
2021/05/29 12:08:04;;;;;;;1.85;1.08;;;26.30;58.50;;;;;;5086064;28;27900;-66
2021/05/29 12:10:51;;;;;;;3.75;1.00;;;26.10;61.80;;;;;;5086734;28;27488;-65
2021/05/29 12:13:35;;;;;;;1.48;1.00;;;25.90;62.00;;;;;;5086536;28;27383;-65
2021/05/29 12:16:27;;;;;;;1.38;1.13;;;25.70;57.60;;;;;;5085584;28;27379;-66
2021/05/29 12:19:48;;;;;;;2.50;1.20;;;25.50;58.90;;;;;;5086280;28;27449;-65
2021/05/29 12:22:32;;;;;;;4.18;1.48;;;25.20;56.40;;;;;;5086384;28;27367;-66
2021/05/29 12:25:18;;;;;;;1.25;1.13;;;24.90;58.50;;;;;;5086327;28;27308;-66
2021/05/29 12:28:03;;;;;;;3.47;1.27;;;24.80;60.80;;;;;;5098591;27;27341;-65
2021/05/29 12:30:48;;;;;;;1.80;1.10;;;24.80;64.90;;;;;;5085648;28;27877;-66
2021/05/29 12:33:33;;;;;;;1.58;0.93;;;24.90;66.00;;;;;;5086150;28;27396;-65
2021/05/29 12:36:17;;;;;;;1.33;1.10;;;24.90;61.80;;;;;;5082140;28;27380;-65
2021/05/29 12:39:03;;;;;;;3.83;0.93;;;24.80;61.50;;;;;;5086057;28;27395;-66
2021/05/29 12:41:47;;;;;;;2.90;1.10;;;24.70;58.50;;;;;;5086250;28;27325;-66
2021/05/29 12:44:48;;;;;;;2.22;1.10;;;24.60;61.50;;;;;;5086233;28;27368;-66
2021/05/29 12:47:33;;;;;;;1.30;0.95;;;24.50;62.30;;;;;;5086232;28;27412;-66
2021/05/29 12:50:19;;;;;;;1.45;0.93;;;24.40;59.70;;;;;;5086332;28;27392;-67
2021/05/29 12:53:11;;;;;;;3.35;1.10;;;24.40;57.80;;;;;;5086077;28;27482;-66
2021/05/29 12:56:16;;;;;;;2.38;1.23;;;24.60;63.30;;;;;;5085519;28;27486;-65
2021/05/29 12:59:07;;;;;;;0.80;0.80;;;24.80;64.00;;;;;;5085823;28;27470;-66
2021/05/29 13:08:14;;;;;;;1.20;0.82;;;25.10;59.10;;;;;;5085057;28;27400;-67
2021/05/29 13:11:01;;;;;;;2.00;1.02;;;25.10;58.00;;;;;;5085387;28;27341;-66
2021/05/29 13:14:14;;;;;;;1.33;0.90;;;25.00;54.30;;;;;;5084981;28;27483;-66
2021/05/29 13:17:00;;;;;;;1.65;1.00;;;24.70;56.50;;;;;;5085993;28;27388;-65
2021/05/29 13:19:52;;;;;;;1.23;0.75;;;24.50;56.90;;;;;;5084796;28;27423;-66
2021/05/29 13:22:38;;;;;;;1.42;0.77;;;24.40;59.20;;;;;;5085326;28;27308;-66
2021/05/29 13:25:23;;;;;;;2.25;0.90;;;24.30;59.80;;;;;;5085563;28;27383;-66
2021/05/29 13:28:17;;;;;;;1.58;0.80;;;24.30;62.20;;;;;;5084576;28;27923;-69
2021/05/29 13:31:02;;;;;;;2.92;0.95;;;24.40;63.30;;;;;;5081492;28;27375;-66
2021/05/29 13:33:47;;;;;;;0.75;0.75;;;24.60;65.00;;;;;;5085474;28;27328;-66
2021/05/29 13:36:31;;;;;;;0.70;0.60;;;24.70;60.10;;;;;;5084577;28;27382;-66
2021/05/29 13:39:17;;;;;;;0.95;0.80;;;24.90;60.30;;;;;;5083912;28;27543;-65
2021/05/29 13:42:03;;;;;;;0.75;0.68;;;25.00;60.80;;;;;;5084396;28;27384;-66
2021/05/29 13:44:47;;;;;;;1.52;0.85;;;25.00;55.90;;;;;;5085029;28;27402;-65
2021/05/29 13:47:32;;;;;;;1.02;0.77;;;24.90;57.00;;;;;;5070363;28;27420;-65
2021/05/29 13:50:18;;;;;;;0.60;0.60;;;24.80;55.60;;;;;;5084639;28;27392;-66
2021/05/29 13:53:02;;;;;;;2.28;0.55;;;24.70;60.90;;;;;;5084973;28;27335;-66
2021/05/29 13:55:47;;;;;;;1.05;0.60;;;24.60;57.30;;;;;;5085243;28;27391;-65
2021/05/29 13:58:31;;;;;;;0.88;0.70;;;24.60;58.20;;;;;;5084838;28;27335;-65
2021/05/29 14:01:16;;;;;;;1.75;0.70;;;24.60;57.00;;;;;;5084720;28;27323;-66
2021/05/29 14:04:00;;;;;;;0.70;0.50;;;24.60;54.40;;;;;;5084227;28;27415;-66
2021/05/29 14:06:45;;;;;;;2.30;0.60;;;24.50;54.70;;;;;;5084250;28;27489;-66
2021/05/29 14:09:29;;;;;;;1.55;1.08;;;24.40;54.60;;;;;;5084924;28;27435;-65
2021/05/29 14:12:14;;;;;;;2.92;0.80;;;24.30;57.90;;;;;;5084737;28;27837;-65
2021/05/29 14:14:58;;;;;;;1.05;0.70;;;24.20;57.40;;;;;;5083714;28;27496;-65
2021/05/29 14:17:43;;;;;;;0.95;0.70;;;24.20;58.40;;;;;;5083914;28;27439;-65
2021/05/29 14:20:28;;;;;;;0.90;0.80;;;24.10;57.00;;;;;;5084779;28;26908;-65
2021/05/29 14:23:12;;;;;;;1.08;0.80;;;24.00;57.20;;;;;;5084396;28;27877;-65
2021/05/29 14:25:57;;;;;;;1.52;0.80;;;24.00;60.70;;;;;;5084349;28;27469;-69
2021/05/29 14:28:41;;;;;;;0.88;0.73;;;24.10;57.80;;;;;;5084690;28;26967;-65
2021/05/29 14:31:26;;;;;;;1.35;0.80;;;24.20;60.20;;;;;;5083522;28;27408;-65
2021/05/29 14:34:11;;;;;;;0.88;0.50;;;24.40;60.10;;;;;;5084142;28;27450;-65
2021/05/29 14:36:56;;;;;;;1.10;0.80;;;24.50;56.70;;;;;;5084437;28;27419;-64
2021/05/29 14:39:44;;;;;;;1.20;0.80;;;24.60;55.00;;;;;;5083965;28;27446;-64
2021/05/29 14:42:31;;;;;;;1.23;0.85;;;24.60;54.20;;;;;;5084438;28;27465;-65
2021/05/29 14:45:15;;;;;;;2.38;1.10;;;24.50;52.30;;;;;;5083167;28;27881;-65